MUCL

Details ICAO MUCL (CYO)
Name VILO ACUNA INTL
Region Cuba
Timezone America/Havana (UTC-4.0)
Plans Departing 22
Arriving 27
Stats Elevation 10 ft / 3 m (AMSL)
Location 21.616452° -81.546000°
Runways 1
Magnetic Variation 5.287° W
Sunrise 2018-05-27 10:45:19 UTC / 2018-05-27 06:45:19 Local
Sunset 2018-05-28 00:04:18 UTC / 2018-05-27 20:04:18 Local
Advertisement - Login to hide

Runways

ID Width Length Bearing (true) Bearing (mag) Surface Threshold Offset Overrun Length
12 148 ft / 45 m 9,868 ft / 3,008 m 116.16° 121.45° Asphalt 0 ft / 0 m 197 ft / 60 m
30 148 ft / 45 m 9,868 ft / 3,008 m 296.17° 301.46° Asphalt 0 ft / 0 m 197 ft / 60 m

Map

Weather


0- 5 10 15 20 25 30 35+ Temperature / ° C

Clouds and Precipitation
Forecast for 2018-05-27 12:00 UTC. Updated an hour ago

Ground ~20,000 ft ~40,000 ft Winds

METAR

MUCL 271005Z AUTO 19017KT 27/25 Q1008

TAF

Not found

Frequencies

Tower 118.50 MHz CAYO LARGO TWR
Approach 120.10 MHz CAYO LARGO APP
Warning: Do not use this data for real-world aviation or navigation. No guarantee of current accuracy is given.